sensor_id;sensor_type;location;lat;lon;timestamp;P1;durP1;ratioP1;P2;durP2;ratioP2
7997;SDS011;4044;49.814;7.828;2022-08-19T00:01:30;22.88;;;20.98;;
7997;SDS011;4044;49.814;7.828;2022-08-19T00:03:57;22.38;;;20.27;;
7997;SDS011;4044;49.814;7.828;2022-08-19T00:06:23;22.73;;;20.73;;
7997;SDS011;4044;49.814;7.828;2022-08-19T00:08:49;22.45;;;20.35;;
7997;SDS011;4044;49.814;7.828;2022-08-19T00:11:16;22.77;;;20.70;;
7997;SDS011;4044;49.814;7.828;2022-08-19T00:13:42;22.05;;;20.15;;
7997;SDS011;4044;49.814;7.828;2022-08-19T00:16:07;22.10;;;20.25;;
7997;SDS011;4044;49.814;7.828;2022-08-19T00:18:33;23.73;;;21.40;;
7997;SDS011;4044;49.814;7.828;2022-08-19T00:20:59;22.08;;;20.17;;
7997;SDS011;4044;49.814;7.828;2022-08-19T00:23:25;22.50;;;20.45;;
7997;SDS011;4044;49.814;7.828;2022-08-19T00:25:52;22.02;;;20.23;;
7997;SDS011;4044;49.814;7.828;2022-08-19T00:28:18;22.20;;;20.30;;
7997;SDS011;4044;49.814;7.828;2022-08-19T00:30:45;21.65;;;19.80;;
7997;SDS011;4044;49.814;7.828;2022-08-19T00:33:11;21.45;;;19.50;;
7997;SDS011;4044;49.814;7.828;2022-08-19T00:35:36;22.50;;;20.58;;
7997;SDS011;4044;49.814;7.828;2022-08-19T00:38:03;22.05;;;20.25;;
7997;SDS011;4044;49.814;7.828;2022-08-19T00:40:31;21.58;;;19.77;;
7997;SDS011;4044;49.814;7.828;2022-08-19T00:42:57;23.95;;;21.80;;
7997;SDS011;4044;49.814;7.828;2022-08-19T00:45:24;22.55;;;20.63;;
7997;SDS011;4044;49.814;7.828;2022-08-19T00:47:51;21.75;;;19.85;;
7997;SDS011;4044;49.814;7.828;2022-08-19T00:50:18;21.67;;;19.90;;
7997;SDS011;4044;49.814;7.828;2022-08-19T00:52:46;22.88;;;20.75;;
7997;SDS011;4044;49.814;7.828;2022-08-19T00:55:18;21.50;;;19.70;;
7997;SDS011;4044;49.814;7.828;2022-08-19T00:57:48;22.52;;;20.60;;
7997;SDS011;4044;49.814;7.828;2022-08-19T01:00:23;22.25;;;20.35;;
7997;SDS011;4044;49.814;7.828;2022-08-19T01:02:50;22.27;;;20.38;;
7997;SDS011;4044;49.814;7.828;2022-08-19T01:05:18;21.67;;;19.73;;
7997;SDS011;4044;49.814;7.828;2022-08-19T01:07:46;22.35;;;20.52;;
7997;SDS011;4044;49.814;7.828;2022-08-19T01:10:14;22.80;;;20.92;;
7997;SDS011;4044;49.814;7.828;2022-08-19T01:12:44;23.42;;;21.27;;
7997;SDS011;4044;49.814;7.828;2022-08-19T01:15:12;24.63;;;22.10;;
7997;SDS011;4044;49.814;7.828;2022-08-19T01:17:41;22.58;;;20.58;;
7997;SDS011;4044;49.814;7.828;2022-08-19T01:20:12;22.45;;;20.40;;
7997;SDS011;4044;49.814;7.828;2022-08-19T01:22:42;22.75;;;20.85;;
7997;SDS011;4044;49.814;7.828;2022-08-19T01:25:17;21.92;;;19.77;;
7997;SDS011;4044;49.814;7.828;2022-08-19T01:27:45;22.50;;;20.50;;
7997;SDS011;4044;49.814;7.828;2022-08-19T01:30:34;22.60;;;20.60;;
7997;SDS011;4044;49.814;7.828;2022-08-19T01:32:59;22.23;;;20.25;;
7997;SDS011;4044;49.814;7.828;2022-08-19T01:35:26;22.67;;;20.80;;
7997;SDS011;4044;49.814;7.828;2022-08-19T01:37:58;22.50;;;20.40;;
7997;SDS011;4044;49.814;7.828;2022-08-19T01:40:31;25.58;;;23.27;;
7997;SDS011;4044;49.814;7.828;2022-08-19T01:42:58;24.27;;;22.17;;
7997;SDS011;4044;49.814;7.828;2022-08-19T01:45:25;23.70;;;21.70;;
7997;SDS011;4044;49.814;7.828;2022-08-19T01:47:52;24.17;;;22.08;;
7997;SDS011;4044;49.814;7.828;2022-08-19T01:50:19;23.98;;;21.88;;
7997;SDS011;4044;49.814;7.828;2022-08-19T01:52:44;24.05;;;21.90;;
7997;SDS011;4044;49.814;7.828;2022-08-19T01:55:12;23.77;;;21.77;;
7997;SDS011;4044;49.814;7.828;2022-08-19T01:57:49;23.52;;;21.48;;
7997;SDS011;4044;49.814;7.828;2022-08-19T02:00:23;22.80;;;20.80;;
7997;SDS011;4044;49.814;7.828;2022-08-19T02:02:52;24.38;;;22.17;;
7997;SDS011;4044;49.814;7.828;2022-08-19T02:05:18;24.42;;;22.23;;
7997;SDS011;4044;49.814;7.828;2022-08-19T02:07:46;23.65;;;21.20;;
7997;SDS011;4044;49.814;7.828;2022-08-19T02:10:13;24.27;;;22.02;;
7997;SDS011;4044;49.814;7.828;2022-08-19T02:12:44;24.23;;;22.02;;
7997;SDS011;4044;49.814;7.828;2022-08-19T02:15:10;24.95;;;22.75;;
7997;SDS011;4044;49.814;7.828;2022-08-19T02:17:36;24.63;;;22.42;;
7997;SDS011;4044;49.814;7.828;2022-08-19T02:20:02;23.35;;;21.30;;
7997;SDS011;4044;49.814;7.828;2022-08-19T02:22:30;25.20;;;22.95;;
7997;SDS011;4044;49.814;7.828;2022-08-19T02:24:56;23.90;;;21.80;;
7997;SDS011;4044;49.814;7.828;2022-08-19T02:27:22;24.20;;;22.10;;
7997;SDS011;4044;49.814;7.828;2022-08-19T02:29:48;23.48;;;21.48;;
7997;SDS011;4044;49.814;7.828;2022-08-19T02:32:15;23.73;;;21.45;;
7997;SDS011;4044;49.814;7.828;2022-08-19T02:34:43;23.98;;;21.88;;
7997;SDS011;4044;49.814;7.828;2022-08-19T02:37:09;24.33;;;21.92;;
7997;SDS011;4044;49.814;7.828;2022-08-19T02:39:54;23.90;;;21.83;;
7997;SDS011;4044;49.814;7.828;2022-08-19T02:42:20;23.88;;;21.58;;
7997;SDS011;4044;49.814;7.828;2022-08-19T02:44:46;23.05;;;21.13;;
7997;SDS011;4044;49.814;7.828;2022-08-19T02:47:11;23.95;;;21.85;;
7997;SDS011;4044;49.814;7.828;2022-08-19T02:49:39;24.92;;;22.77;;
7997;SDS011;4044;49.814;7.828;2022-08-19T02:52:04;23.50;;;21.48;;
7997;SDS011;4044;49.814;7.828;2022-08-19T02:54:30;25.25;;;23.00;;
7997;SDS011;4044;49.814;7.828;2022-08-19T02:56:56;24.55;;;22.45;;
7997;SDS011;4044;49.814;7.828;2022-08-19T02:59:21;25.80;;;23.38;;
7997;SDS011;4044;49.814;7.828;2022-08-19T03:01:47;24.20;;;22.00;;
7997;SDS011;4044;49.814;7.828;2022-08-19T03:04:13;25.58;;;23.27;;
7997;SDS011;4044;49.814;7.828;2022-08-19T03:06:41;26.20;;;23.65;;
7997;SDS011;4044;49.814;7.828;2022-08-19T03:09:08;25.90;;;23.60;;
7997;SDS011;4044;49.814;7.828;2022-08-19T03:11:35;25.20;;;22.98;;
7997;SDS011;4044;49.814;7.828;2022-08-19T03:14:03;26.30;;;23.73;;
7997;SDS011;4044;49.814;7.828;2022-08-19T03:16:31;26.40;;;24.00;;
7997;SDS011;4044;49.814;7.828;2022-08-19T03:18:59;26.25;;;23.85;;
7997;SDS011;4044;49.814;7.828;2022-08-19T03:21:26;24.60;;;22.48;;
7997;SDS011;4044;49.814;7.828;2022-08-19T03:23:55;24.60;;;22.40;;
7997;SDS011;4044;49.814;7.828;2022-08-19T03:26:21;25.20;;;22.85;;
7997;SDS011;4044;49.814;7.828;2022-08-19T03:28:47;26.50;;;24.10;;
7997;SDS011;4044;49.814;7.828;2022-08-19T03:31:15;27.40;;;24.77;;
7997;SDS011;4044;49.814;7.828;2022-08-19T03:33:42;27.85;;;25.25;;
7997;SDS011;4044;49.814;7.828;2022-08-19T03:36:15;26.20;;;23.80;;
7997;SDS011;4044;49.814;7.828;2022-08-19T03:38:48;26.35;;;23.95;;
7997;SDS011;4044;49.814;7.828;2022-08-19T03:41:18;25.48;;;23.17;;
7997;SDS011;4044;49.814;7.828;2022-08-19T03:43:46;26.45;;;24.15;;
7997;SDS011;4044;49.814;7.828;2022-08-19T03:46:14;25.70;;;23.33;;
7997;SDS011;4044;49.814;7.828;2022-08-19T03:48:47;26.77;;;24.17;;
7997;SDS011;4044;49.814;7.828;2022-08-19T03:51:23;26.60;;;24.30;;
7997;SDS011;4044;49.814;7.828;2022-08-19T03:53:56;25.65;;;23.35;;
7997;SDS011;4044;49.814;7.828;2022-08-19T03:56:23;26.00;;;23.70;;
7997;SDS011;4044;49.814;7.828;2022-08-19T03:58:51;26.40;;;23.98;;
7997;SDS011;4044;49.814;7.828;2022-08-19T04:01:18;26.58;;;24.17;;
7997;SDS011;4044;49.814;7.828;2022-08-19T04:03:46;27.08;;;24.33;;
7997;SDS011;4044;49.814;7.828;2022-08-19T04:06:13;27.02;;;24.58;;
7997;SDS011;4044;49.814;7.828;2022-08-19T04:08:41;26.98;;;24.58;;
7997;SDS011;4044;49.814;7.828;2022-08-19T04:11:09;26.85;;;24.35;;
7997;SDS011;4044;49.814;7.828;2022-08-19T04:13:37;26.75;;;24.35;;
7997;SDS011;4044;49.814;7.828;2022-08-19T04:16:03;27.73;;;25.13;;
7997;SDS011;4044;49.814;7.828;2022-08-19T04:18:30;27.40;;;24.83;;
7997;SDS011;4044;49.814;7.828;2022-08-19T04:20:57;26.25;;;24.00;;
7997;SDS011;4044;49.814;7.828;2022-08-19T04:23:23;26.88;;;24.38;;
7997;SDS011;4044;49.814;7.828;2022-08-19T04:25:49;27.80;;;25.35;;
7997;SDS011;4044;49.814;7.828;2022-08-19T04:28:14;27.65;;;25.05;;
7997;SDS011;4044;49.814;7.828;2022-08-19T04:30:41;27.00;;;24.52;;
7997;SDS011;4044;49.814;7.828;2022-08-19T04:33:09;27.42;;;24.95;;
7997;SDS011;4044;49.814;7.828;2022-08-19T04:35:39;27.42;;;25.00;;
7997;SDS011;4044;49.814;7.828;2022-08-19T04:38:06;27.40;;;24.85;;
7997;SDS011;4044;49.814;7.828;2022-08-19T04:40:33;28.00;;;25.30;;
7997;SDS011;4044;49.814;7.828;2022-08-19T04:43:22;26.70;;;24.13;;
7997;SDS011;4044;49.814;7.828;2022-08-19T04:45:48;27.75;;;25.02;;
7997;SDS011;4044;49.814;7.828;2022-08-19T04:48:14;27.65;;;24.75;;
7997;SDS011;4044;49.814;7.828;2022-08-19T04:50:40;28.98;;;25.88;;
7997;SDS011;4044;49.814;7.828;2022-08-19T04:53:07;27.30;;;24.58;;
7997;SDS011;4044;49.814;7.828;2022-08-19T04:55:33;29.67;;;26.55;;
7997;SDS011;4044;49.814;7.828;2022-08-19T04:58:00;33.20;;;26.38;;
7997;SDS011;4044;49.814;7.828;2022-08-19T05:00:26;33.45;;;25.13;;
7997;SDS011;4044;49.814;7.828;2022-08-19T05:02:52;27.25;;;24.55;;
7997;SDS011;4044;49.814;7.828;2022-08-19T05:05:17;27.83;;;24.83;;
7997;SDS011;4044;49.814;7.828;2022-08-19T05:07:44;29.70;;;25.27;;
7997;SDS011;4044;49.814;7.828;2022-08-19T05:10:10;31.38;;;25.38;;
7997;SDS011;4044;49.814;7.828;2022-08-19T05:12:36;35.35;;;25.90;;
7997;SDS011;4044;49.814;7.828;2022-08-19T05:15:02;27.90;;;25.17;;
7997;SDS011;4044;49.814;7.828;2022-08-19T05:17:30;32.75;;;26.00;;
7997;SDS011;4044;49.814;7.828;2022-08-19T05:19:56;27.37;;;24.30;;
7997;SDS011;4044;49.814;7.828;2022-08-19T05:22:41;26.83;;;24.23;;
7997;SDS011;4044;49.814;7.828;2022-08-19T05:25:09;27.15;;;24.33;;
7997;SDS011;4044;49.814;7.828;2022-08-19T05:27:37;26.92;;;23.98;;
7997;SDS011;4044;49.814;7.828;2022-08-19T05:30:03;26.63;;;23.80;;
7997;SDS011;4044;49.814;7.828;2022-08-19T05:32:30;26.48;;;23.63;;
7997;SDS011;4044;49.814;7.828;2022-08-19T05:34:55;29.77;;;24.13;;
7997;SDS011;4044;49.814;7.828;2022-08-19T05:37:21;34.70;;;22.27;;
7997;SDS011;4044;49.814;7.828;2022-08-19T05:39:47;37.50;;;24.50;;
7997;SDS011;4044;49.814;7.828;2022-08-19T05:42:14;36.58;;;23.92;;
7997;SDS011;4044;49.814;7.828;2022-08-19T05:44:41;28.92;;;23.48;;
7997;SDS011;4044;49.814;7.828;2022-08-19T05:47:09;29.30;;;24.75;;
7997;SDS011;4044;49.814;7.828;2022-08-19T05:49:36;28.23;;;23.73;;
7997;SDS011;4044;49.814;7.828;2022-08-19T05:52:03;27.77;;;24.08;;
7997;SDS011;4044;49.814;7.828;2022-08-19T05:54:30;26.63;;;24.10;;
7997;SDS011;4044;49.814;7.828;2022-08-19T05:56:56;26.83;;;23.60;;
7997;SDS011;4044;49.814;7.828;2022-08-19T05:59:22;25.95;;;23.20;;
7997;SDS011;4044;49.814;7.828;2022-08-19T06:01:49;23.67;;;21.35;;
7997;SDS011;4044;49.814;7.828;2022-08-19T06:04:16;22.65;;;20.63;;
7997;SDS011;4044;49.814;7.828;2022-08-19T06:06:44;22.60;;;20.48;;
7997;SDS011;4044;49.814;7.828;2022-08-19T06:09:11;22.13;;;19.98;;
7997;SDS011;4044;49.814;7.828;2022-08-19T06:11:39;24.83;;;19.70;;
7997;SDS011;4044;49.814;7.828;2022-08-19T06:14:08;22.92;;;20.27;;
7997;SDS011;4044;49.814;7.828;2022-08-19T06:16:35;24.88;;;21.27;;
7997;SDS011;4044;49.814;7.828;2022-08-19T06:19:04;21.02;;;18.80;;
7997;SDS011;4044;49.814;7.828;2022-08-19T06:21:31;22.95;;;20.30;;
7997;SDS011;4044;49.814;7.828;2022-08-19T06:23:58;21.65;;;19.52;;
7997;SDS011;4044;49.814;7.828;2022-08-19T06:26:24;20.50;;;18.45;;
7997;SDS011;4044;49.814;7.828;2022-08-19T06:28:49;19.50;;;16.67;;
7997;SDS011;4044;49.814;7.828;2022-08-19T06:31:20;17.90;;;16.30;;
7997;SDS011;4044;49.814;7.828;2022-08-19T06:33:50;17.20;;;15.70;;
7997;SDS011;4044;49.814;7.828;2022-08-19T06:36:35;16.25;;;14.75;;
7997;SDS011;4044;49.814;7.828;2022-08-19T06:39:07;14.80;;;13.57;;
7997;SDS011;4044;49.814;7.828;2022-08-19T06:41:35;15.48;;;14.18;;
7997;SDS011;4044;49.814;7.828;2022-08-19T06:44:03;14.60;;;13.20;;
7997;SDS011;4044;49.814;7.828;2022-08-19T06:46:30;14.68;;;13.27;;
7997;SDS011;4044;49.814;7.828;2022-08-19T06:48:55;14.00;;;12.80;;
7997;SDS011;4044;49.814;7.828;2022-08-19T06:51:21;14.13;;;12.73;;
7997;SDS011;4044;49.814;7.828;2022-08-19T06:53:49;13.38;;;12.13;;
7997;SDS011;4044;49.814;7.828;2022-08-19T06:56:17;13.45;;;12.25;;
7997;SDS011;4044;49.814;7.828;2022-08-19T06:58:45;12.82;;;11.68;;
7997;SDS011;4044;49.814;7.828;2022-08-19T07:01:12;14.07;;;11.93;;
7997;SDS011;4044;49.814;7.828;2022-08-19T07:03:38;13.52;;;12.23;;
7997;SDS011;4044;49.814;7.828;2022-08-19T07:06:05;12.90;;;11.80;;
7997;SDS011;4044;49.814;7.828;2022-08-19T07:08:33;13.85;;;12.45;;
7997;SDS011;4044;49.814;7.828;2022-08-19T07:10:59;13.57;;;12.35;;
7997;SDS011;4044;49.814;7.828;2022-08-19T07:13:25;14.18;;;12.70;;
7997;SDS011;4044;49.814;7.828;2022-08-19T07:15:51;13.27;;;11.95;;
7997;SDS011;4044;49.814;7.828;2022-08-19T07:18:18;15.05;;;13.75;;
7997;SDS011;4044;49.814;7.828;2022-08-19T07:20:44;13.45;;;12.23;;
7997;SDS011;4044;49.814;7.828;2022-08-19T07:23:10;14.52;;;12.88;;
7997;SDS011;4044;49.814;7.828;2022-08-19T07:25:36;13.07;;;11.68;;
7997;SDS011;4044;49.814;7.828;2022-08-19T07:28:02;12.77;;;11.48;;
7997;SDS011;4044;49.814;7.828;2022-08-19T07:30:29;12.68;;;11.50;;
7997;SDS011;4044;49.814;7.828;2022-08-19T07:32:55;12.77;;;11.75;;
7997;SDS011;4044;49.814;7.828;2022-08-19T07:35:21;12.32;;;11.32;;
7997;SDS011;4044;49.814;7.828;2022-08-19T07:37:48;12.82;;;11.63;;
7997;SDS011;4044;49.814;7.828;2022-08-19T07:40:14;12.20;;;10.95;;
7997;SDS011;4044;49.814;7.828;2022-08-19T07:42:40;11.77;;;10.57;;
7997;SDS011;4044;49.814;7.828;2022-08-19T07:45:07;12.48;;;11.25;;
7997;SDS011;4044;49.814;7.828;2022-08-19T07:47:33;18.85;;;15.60;;
7997;SDS011;4044;49.814;7.828;2022-08-19T07:49:59;17.95;;;15.40;;
7997;SDS011;4044;49.814;7.828;2022-08-19T07:52:24;14.80;;;11.85;;
7997;SDS011;4044;49.814;7.828;2022-08-19T07:54:50;14.45;;;12.80;;
7997;SDS011;4044;49.814;7.828;2022-08-19T07:57:15;18.05;;;16.08;;
7997;SDS011;4044;49.814;7.828;2022-08-19T07:59:41;18.77;;;16.75;;
7997;SDS011;4044;49.814;7.828;2022-08-19T08:02:07;20.23;;;18.23;;
7997;SDS011;4044;49.814;7.828;2022-08-19T08:04:33;19.33;;;17.50;;
7997;SDS011;4044;49.814;7.828;2022-08-19T08:07:18;22.48;;;20.38;;
7997;SDS011;4044;49.814;7.828;2022-08-19T08:10:03;21.45;;;19.35;;
7997;SDS011;4044;49.814;7.828;2022-08-19T08:12:32;22.20;;;19.80;;
7997;SDS011;4044;49.814;7.828;2022-08-19T08:15:02;25.58;;;23.10;;
7997;SDS011;4044;49.814;7.828;2022-08-19T08:17:32;22.88;;;20.77;;
7997;SDS011;4044;49.814;7.828;2022-08-19T08:19:58;22.15;;;20.05;;
7997;SDS011;4044;49.814;7.828;2022-08-19T08:22:24;21.08;;;18.98;;
7997;SDS011;4044;49.814;7.828;2022-08-19T08:25:19;20.40;;;18.10;;
7997;SDS011;4044;49.814;7.828;2022-08-19T08:27:47;21.13;;;19.27;;
7997;SDS011;4044;49.814;7.828;2022-08-19T08:30:24;20.23;;;18.42;;
7997;SDS011;4044;49.814;7.828;2022-08-19T08:32:51;19.88;;;17.98;;
7997;SDS011;4044;49.814;7.828;2022-08-19T08:35:18;20.55;;;18.58;;
7997;SDS011;4044;49.814;7.828;2022-08-19T08:37:46;20.10;;;18.35;;
7997;SDS011;4044;49.814;7.828;2022-08-19T08:45:41;20.92;;;18.88;;
7997;SDS011;4044;49.814;7.828;2022-08-19T08:48:20;21.52;;;19.50;;
7997;SDS011;4044;49.814;7.828;2022-08-19T08:51:03;21.02;;;19.13;;
7997;SDS011;4044;49.814;7.828;2022-08-19T08:53:34;19.88;;;18.10;;
7997;SDS011;4044;49.814;7.828;2022-08-19T08:56:02;20.95;;;19.02;;
7997;SDS011;4044;49.814;7.828;2022-08-19T09:01:09;16.17;;;14.68;;
7997;SDS011;4044;49.814;7.828;2022-08-19T09:03:36;14.30;;;13.02;;
7997;SDS011;4044;49.814;7.828;2022-08-19T09:06:13;13.75;;;12.65;;
7997;SDS011;4044;49.814;7.828;2022-08-19T09:09:03;14.43;;;13.23;;
7997;SDS011;4044;49.814;7.828;2022-08-19T09:17:08;14.77;;;13.40;;
7997;SDS011;4044;49.814;7.828;2022-08-19T09:19:35;14.07;;;12.77;;
7997;SDS011;4044;49.814;7.828;2022-08-19T09:22:14;13.30;;;12.18;;
7997;SDS011;4044;49.814;7.828;2022-08-19T09:24:40;13.43;;;12.23;;
7997;SDS011;4044;49.814;7.828;2022-08-19T09:27:06;13.73;;;12.25;;
7997;SDS011;4044;49.814;7.828;2022-08-19T09:29:31;11.95;;;10.95;;
7997;SDS011;4044;49.814;7.828;2022-08-19T09:31:57;11.20;;;10.32;;
7997;SDS011;4044;49.814;7.828;2022-08-19T09:34:22;10.10;;;9.20;;
7997;SDS011;4044;49.814;7.828;2022-08-19T09:36:48;10.02;;;9.23;;
7997;SDS011;4044;49.814;7.828;2022-08-19T09:39:20;8.85;;;7.70;;
7997;SDS011;4044;49.814;7.828;2022-08-19T09:41:46;7.88;;;7.15;;
7997;SDS011;4044;49.814;7.828;2022-08-19T09:44:11;9.40;;;8.45;;
7997;SDS011;4044;49.814;7.828;2022-08-19T09:46:38;8.93;;;8.23;;
7997;SDS011;4044;49.814;7.828;2022-08-19T09:49:03;8.23;;;7.63;;
7997;SDS011;4044;49.814;7.828;2022-08-19T09:51:31;8.85;;;7.95;;
7997;SDS011;4044;49.814;7.828;2022-08-19T09:54:01;8.18;;;7.38;;
7997;SDS011;4044;49.814;7.828;2022-08-19T09:56:28;8.60;;;7.90;;
7997;SDS011;4044;49.814;7.828;2022-08-19T09:58:55;8.30;;;7.68;;
7997;SDS011;4044;49.814;7.828;2022-08-19T10:01:23;9.55;;;8.70;;
7997;SDS011;4044;49.814;7.828;2022-08-19T10:03:52;7.75;;;7.15;;
7997;SDS011;4044;49.814;7.828;2022-08-19T10:06:20;7.15;;;6.50;;
7997;SDS011;4044;49.814;7.828;2022-08-19T10:08:47;8.73;;;8.05;;
7997;SDS011;4044;49.814;7.828;2022-08-19T10:11:14;7.88;;;7.28;;
7997;SDS011;4044;49.814;7.828;2022-08-19T10:13:42;6.18;;;5.53;;
7997;SDS011;4044;49.814;7.828;2022-08-19T10:16:09;6.38;;;5.90;;
7997;SDS011;4044;49.814;7.828;2022-08-19T10:18:38;6.53;;;5.93;;
7997;SDS011;4044;49.814;7.828;2022-08-19T10:21:08;8.07;;;6.20;;
7997;SDS011;4044;49.814;7.828;2022-08-19T10:24:00;6.18;;;5.78;;
7997;SDS011;4044;49.814;7.828;2022-08-19T10:26:30;5.57;;;5.28;;
7997;SDS011;4044;49.814;7.828;2022-08-19T10:28:58;5.30;;;4.90;;
7997;SDS011;4044;49.814;7.828;2022-08-19T10:31:26;4.68;;;4.28;;
7997;SDS011;4044;49.814;7.828;2022-08-19T10:33:53;4.90;;;4.60;;
7997;SDS011;4044;49.814;7.828;2022-08-19T10:36:24;4.95;;;4.57;;
7997;SDS011;4044;49.814;7.828;2022-08-19T10:38:53;5.03;;;4.60;;
7997;SDS011;4044;49.814;7.828;2022-08-19T10:41:22;5.32;;;4.93;;
7997;SDS011;4044;49.814;7.828;2022-08-19T10:43:53;4.70;;;4.30;;
7997;SDS011;4044;49.814;7.828;2022-08-19T10:46:20;4.35;;;4.15;;
7997;SDS011;4044;49.814;7.828;2022-08-19T10:48:47;4.80;;;4.45;;
7997;SDS011;4044;49.814;7.828;2022-08-19T10:51:14;5.13;;;4.72;;
7997;SDS011;4044;49.814;7.828;2022-08-19T10:53:59;4.63;;;4.22;;
7997;SDS011;4044;49.814;7.828;2022-08-19T10:56:25;4.65;;;4.15;;
7997;SDS011;4044;49.814;7.828;2022-08-19T10:59:10;4.03;;;3.83;;
7997;SDS011;4044;49.814;7.828;2022-08-19T11:01:38;5.13;;;4.53;;
7997;SDS011;4044;49.814;7.828;2022-08-19T11:04:05;5.10;;;4.30;;
7997;SDS011;4044;49.814;7.828;2022-08-19T11:06:33;4.45;;;4.15;;
7997;SDS011;4044;49.814;7.828;2022-08-19T11:08:59;4.72;;;4.43;;
7997;SDS011;4044;49.814;7.828;2022-08-19T11:11:25;4.88;;;4.32;;
7997;SDS011;4044;49.814;7.828;2022-08-19T11:13:51;4.88;;;4.55;;
7997;SDS011;4044;49.814;7.828;2022-08-19T11:16:22;4.60;;;4.30;;
7997;SDS011;4044;49.814;7.828;2022-08-19T11:18:51;4.35;;;3.88;;
7997;SDS011;4044;49.814;7.828;2022-08-19T11:21:20;5.68;;;4.38;;
7997;SDS011;4044;49.814;7.828;2022-08-19T11:23:50;4.45;;;4.15;;
7997;SDS011;4044;49.814;7.828;2022-08-19T11:26:17;4.32;;;3.80;;
7997;SDS011;4044;49.814;7.828;2022-08-19T11:28:44;4.30;;;3.97;;
7997;SDS011;4044;49.814;7.828;2022-08-19T11:31:12;4.65;;;4.10;;
7997;SDS011;4044;49.814;7.828;2022-08-19T11:33:43;4.15;;;3.75;;
7997;SDS011;4044;49.814;7.828;2022-08-19T11:36:10;4.10;;;3.90;;
7997;SDS011;4044;49.814;7.828;2022-08-19T11:38:37;4.45;;;4.15;;
7997;SDS011;4044;49.814;7.828;2022-08-19T11:41:04;5.28;;;4.18;;
7997;SDS011;4044;49.814;7.828;2022-08-19T11:43:32;4.65;;;4.25;;
7997;SDS011;4044;49.814;7.828;2022-08-19T11:45:58;5.82;;;4.60;;
7997;SDS011;4044;49.814;7.828;2022-08-19T11:48:28;6.45;;;4.60;;
7997;SDS011;4044;49.814;7.828;2022-08-19T11:50:53;14.05;;;5.30;;
7997;SDS011;4044;49.814;7.828;2022-08-19T11:53:21;4.63;;;4.32;;
7997;SDS011;4044;49.814;7.828;2022-08-19T11:55:47;5.10;;;4.65;;
7997;SDS011;4044;49.814;7.828;2022-08-19T11:58:14;6.65;;;4.78;;
7997;SDS011;4044;49.814;7.828;2022-08-19T12:00:41;5.40;;;4.90;;
7997;SDS011;4044;49.814;7.828;2022-08-19T12:03:10;4.88;;;4.57;;
7997;SDS011;4044;49.814;7.828;2022-08-19T12:05:38;4.30;;;4.10;;
7997;SDS011;4044;49.814;7.828;2022-08-19T12:08:04;4.70;;;4.40;;
7997;SDS011;4044;49.814;7.828;2022-08-19T12:10:30;13.40;;;5.72;;
7997;SDS011;4044;49.814;7.828;2022-08-19T12:12:56;4.78;;;4.38;;
7997;SDS011;4044;49.814;7.828;2022-08-19T12:15:22;5.25;;;4.80;;
7997;SDS011;4044;49.814;7.828;2022-08-19T12:17:48;5.38;;;4.97;;
7997;SDS011;4044;49.814;7.828;2022-08-19T12:20:13;4.97;;;4.57;;
7997;SDS011;4044;49.814;7.828;2022-08-19T12:22:41;4.95;;;4.60;;
7997;SDS011;4044;49.814;7.828;2022-08-19T12:25:08;5.40;;;4.90;;
7997;SDS011;4044;49.814;7.828;2022-08-19T12:27:35;5.32;;;4.88;;
7997;SDS011;4044;49.814;7.828;2022-08-19T12:30:01;59.58;;;10.20;;
7997;SDS011;4044;49.814;7.828;2022-08-19T12:32:28;5.88;;;4.30;;
7997;SDS011;4044;49.814;7.828;2022-08-19T12:34:54;5.10;;;4.53;;
7997;SDS011;4044;49.814;7.828;2022-08-19T12:37:19;4.25;;;4.05;;
7997;SDS011;4044;49.814;7.828;2022-08-19T12:39:45;4.30;;;4.00;;
7997;SDS011;4044;49.814;7.828;2022-08-19T12:42:11;4.13;;;3.90;;
7997;SDS011;4044;49.814;7.828;2022-08-19T12:44:38;4.57;;;4.32;;
7997;SDS011;4044;49.814;7.828;2022-08-19T12:47:05;4.32;;;4.13;;
7997;SDS011;4044;49.814;7.828;2022-08-19T12:49:31;6.00;;;4.50;;
7997;SDS011;4044;49.814;7.828;2022-08-19T12:52:01;4.78;;;4.30;;
7997;SDS011;4044;49.814;7.828;2022-08-19T12:54:32;4.28;;;4.07;;
7997;SDS011;4044;49.814;7.828;2022-08-19T12:56:58;4.90;;;4.60;;
7997;SDS011;4044;49.814;7.828;2022-08-19T12:59:24;5.18;;;4.63;;
7997;SDS011;4044;49.814;7.828;2022-08-19T13:01:50;4.60;;;4.30;;
7997;SDS011;4044;49.814;7.828;2022-08-19T13:04:16;4.95;;;4.40;;
7997;SDS011;4044;49.814;7.828;2022-08-19T13:06:42;4.30;;;4.00;;
7997;SDS011;4044;49.814;7.828;2022-08-19T13:09:08;4.25;;;4.05;;
7997;SDS011;4044;49.814;7.828;2022-08-19T13:11:34;4.28;;;3.97;;
7997;SDS011;4044;49.814;7.828;2022-08-19T13:14:00;4.70;;;4.38;;
7997;SDS011;4044;49.814;7.828;2022-08-19T13:16:27;4.47;;;4.20;;
7997;SDS011;4044;49.814;7.828;2022-08-19T13:18:53;4.38;;;4.13;;
7997;SDS011;4044;49.814;7.828;2022-08-19T13:21:21;5.05;;;4.60;;
7997;SDS011;4044;49.814;7.828;2022-08-19T13:23:50;4.60;;;4.30;;
7997;SDS011;4044;49.814;7.828;2022-08-19T13:26:16;5.03;;;4.75;;
7997;SDS011;4044;49.814;7.828;2022-08-19T13:28:43;5.03;;;4.72;;
7997;SDS011;4044;49.814;7.828;2022-08-19T13:31:29;5.05;;;4.55;;
7997;SDS011;4044;49.814;7.828;2022-08-19T13:34:16;5.00;;;4.60;;
7997;SDS011;4044;49.814;7.828;2022-08-19T13:36:44;5.13;;;4.82;;
7997;SDS011;4044;49.814;7.828;2022-08-19T13:39:09;4.88;;;4.68;;
7997;SDS011;4044;49.814;7.828;2022-08-19T13:41:36;5.75;;;4.97;;
7997;SDS011;4044;49.814;7.828;2022-08-19T13:44:02;4.97;;;4.57;;
7997;SDS011;4044;49.814;7.828;2022-08-19T13:46:30;5.30;;;5.03;;
7997;SDS011;4044;49.814;7.828;2022-08-19T13:48:56;5.53;;;5.18;;
7997;SDS011;4044;49.814;7.828;2022-08-19T13:51:22;5.45;;;4.55;;
7997;SDS011;4044;49.814;7.828;2022-08-19T13:53:48;5.07;;;4.78;;
7997;SDS011;4044;49.814;7.828;2022-08-19T13:56:14;5.57;;;5.18;;
7997;SDS011;4044;49.814;7.828;2022-08-19T13:58:43;5.28;;;4.90;;
7997;SDS011;4044;49.814;7.828;2022-08-19T14:01:09;5.40;;;5.00;;
7997;SDS011;4044;49.814;7.828;2022-08-19T14:03:35;5.65;;;5.28;;
7997;SDS011;4044;49.814;7.828;2022-08-19T14:06:02;5.03;;;4.72;;
7997;SDS011;4044;49.814;7.828;2022-08-19T14:08:28;5.70;;;5.28;;
7997;SDS011;4044;49.814;7.828;2022-08-19T14:10:54;5.35;;;5.00;;
7997;SDS011;4044;49.814;7.828;2022-08-19T14:13:20;6.35;;;5.60;;
7997;SDS011;4044;49.814;7.828;2022-08-19T14:15:47;5.63;;;5.28;;
7997;SDS011;4044;49.814;7.828;2022-08-19T14:18:14;6.53;;;5.90;;
7997;SDS011;4044;49.814;7.828;2022-08-19T14:20:41;6.13;;;5.63;;
7997;SDS011;4044;49.814;7.828;2022-08-19T14:23:06;5.70;;;5.20;;
7997;SDS011;4044;49.814;7.828;2022-08-19T14:25:32;6.00;;;5.55;;
7997;SDS011;4044;49.814;7.828;2022-08-19T14:27:59;5.70;;;5.30;;
7997;SDS011;4044;49.814;7.828;2022-08-19T14:30:32;5.60;;;5.20;;
7997;SDS011;4044;49.814;7.828;2022-08-19T14:32:59;5.72;;;5.22;;
7997;SDS011;4044;49.814;7.828;2022-08-19T14:35:29;5.60;;;5.30;;
7997;SDS011;4044;49.814;7.828;2022-08-19T14:37:59;5.47;;;5.07;;
7997;SDS011;4044;49.814;7.828;2022-08-19T14:40:26;5.88;;;5.47;;
7997;SDS011;4044;49.814;7.828;2022-08-19T14:42:53;6.75;;;5.82;;
7997;SDS011;4044;49.814;7.828;2022-08-19T14:45:24;6.28;;;5.82;;
7997;SDS011;4044;49.814;7.828;2022-08-19T14:47:51;6.28;;;5.88;;
7997;SDS011;4044;49.814;7.828;2022-08-19T14:50:17;6.18;;;5.75;;
7997;SDS011;4044;49.814;7.828;2022-08-19T14:52:45;7.43;;;6.00;;
7997;SDS011;4044;49.814;7.828;2022-08-19T14:55:12;6.00;;;5.47;;
7997;SDS011;4044;49.814;7.828;2022-08-19T14:57:40;6.85;;;6.15;;
7997;SDS011;4044;49.814;7.828;2022-08-19T15:00:06;6.60;;;6.00;;
7997;SDS011;4044;49.814;7.828;2022-08-19T15:02:36;6.40;;;5.80;;
7997;SDS011;4044;49.814;7.828;2022-08-19T15:05:02;6.30;;;5.70;;
7997;SDS011;4044;49.814;7.828;2022-08-19T15:07:27;7.18;;;6.05;;
7997;SDS011;4044;49.814;7.828;2022-08-19T15:09:54;7.10;;;6.25;;
7997;SDS011;4044;49.814;7.828;2022-08-19T15:12:19;7.90;;;7.10;;
7997;SDS011;4044;49.814;7.828;2022-08-19T15:14:46;7.32;;;6.68;;
7997;SDS011;4044;49.814;7.828;2022-08-19T15:17:15;6.75;;;6.25;;